sensor_id;sensor_type;location;lat;lon;timestamp;temperature;humidity
4530;DHT22;2277;51.626;7.516;2022-11-15T00:00:33;11.20;99.90
4530;DHT22;2277;51.626;7.516;2022-11-15T00:02:59;11.30;99.90
4530;DHT22;2277;51.626;7.516;2022-11-15T00:05:25;11.30;99.90
4530;DHT22;2277;51.626;7.516;2022-11-15T00:07:50;11.40;99.90
4530;DHT22;2277;51.626;7.516;2022-11-15T00:10:16;11.40;99.90
4530;DHT22;2277;51.626;7.516;2022-11-15T00:12:41;11.40;99.90
4530;DHT22;2277;51.626;7.516;2022-11-15T00:15:07;11.30;99.90
4530;DHT22;2277;51.626;7.516;2022-11-15T00:17:33;11.30;99.90
4530;DHT22;2277;51.626;7.516;2022-11-15T00:19:59;11.30;99.90
4530;DHT22;2277;51.626;7.516;2022-11-15T00:22:24;11.30;99.90
4530;DHT22;2277;51.626;7.516;2022-11-15T00:24:50;11.40;99.90
4530;DHT22;2277;51.626;7.516;2022-11-15T00:27:15;11.40;99.90
4530;DHT22;2277;51.626;7.516;2022-11-15T00:29:41;11.40;99.90
4530;DHT22;2277;51.626;7.516;2022-11-15T00:32:10;11.40;99.90
4530;DHT22;2277;51.626;7.516;2022-11-15T00:34:36;11.50;99.90
4530;DHT22;2277;51.626;7.516;2022-11-15T00:37:01;11.60;99.90
4530;DHT22;2277;51.626;7.516;2022-11-15T00:39:27;11.60;99.90
4530;DHT22;2277;51.626;7.516;2022-11-15T00:41:52;11.60;99.90
4530;DHT22;2277;51.626;7.516;2022-11-15T00:44:18;11.70;99.90
4530;DHT22;2277;51.626;7.516;2022-11-15T00:46:44;11.80;99.90
4530;DHT22;2277;51.626;7.516;2022-11-15T00:49:09;11.90;99.90
4530;DHT22;2277;51.626;7.516;2022-11-15T00:51:35;11.90;99.90
4530;DHT22;2277;51.626;7.516;2022-11-15T00:54:00;11.90;99.90
4530;DHT22;2277;51.626;7.516;2022-11-15T00:56:26;11.90;99.90
4530;DHT22;2277;51.626;7.516;2022-11-15T00:58:52;11.90;99.90
4530;DHT22;2277;51.626;7.516;2022-11-15T01:01:18;12.00;99.90
4530;DHT22;2277;51.626;7.516;2022-11-15T01:03:44;12.10;99.90
4530;DHT22;2277;51.626;7.516;2022-11-15T01:06:11;12.00;99.90
4530;DHT22;2277;51.626;7.516;2022-11-15T01:08:39;12.00;99.90
4530;DHT22;2277;51.626;7.516;2022-11-15T01:11:09;11.90;99.90
4530;DHT22;2277;51.626;7.516;2022-11-15T01:13:37;12.00;99.90
4530;DHT22;2277;51.626;7.516;2022-11-15T01:16:15;12.10;99.90
4530;DHT22;2277;51.626;7.516;2022-11-15T01:18:42;12.00;99.90
4530;DHT22;2277;51.626;7.516;2022-11-15T01:21:11;12.10;99.90
4530;DHT22;2277;51.626;7.516;2022-11-15T01:23:37;12.10;99.90
4530;DHT22;2277;51.626;7.516;2022-11-15T01:26:05;12.10;99.90
4530;DHT22;2277;51.626;7.516;2022-11-15T01:28:33;12.10;99.90
4530;DHT22;2277;51.626;7.516;2022-11-15T01:31:04;12.10;99.90
4530;DHT22;2277;51.626;7.516;2022-11-15T01:33:30;12.10;99.90
4530;DHT22;2277;51.626;7.516;2022-11-15T01:36:03;12.20;99.90
4530;DHT22;2277;51.626;7.516;2022-11-15T01:38:29;12.30;99.90
4530;DHT22;2277;51.626;7.516;2022-11-15T01:40:54;12.30;99.90
4530;DHT22;2277;51.626;7.516;2022-11-15T01:43:22;12.40;99.90
4530;DHT22;2277;51.626;7.516;2022-11-15T01:45:54;12.40;99.90
4530;DHT22;2277;51.626;7.516;2022-11-15T01:48:20;12.50;99.90
4530;DHT22;2277;51.626;7.516;2022-11-15T01:50:48;12.50;99.90
4530;DHT22;2277;51.626;7.516;2022-11-15T01:53:14;12.60;99.90
4530;DHT22;2277;51.626;7.516;2022-11-15T01:55:40;12.60;99.90
4530;DHT22;2277;51.626;7.516;2022-11-15T01:58:06;12.70;99.90
4530;DHT22;2277;51.626;7.516;2022-11-15T02:00:32;12.70;99.90
4530;DHT22;2277;51.626;7.516;2022-11-15T02:02:58;12.70;99.90
4530;DHT22;2277;51.626;7.516;2022-11-15T02:05:23;12.80;99.90
4530;DHT22;2277;51.626;7.516;2022-11-15T02:07:50;12.80;99.90
4530;DHT22;2277;51.626;7.516;2022-11-15T02:10:21;12.90;99.90
4530;DHT22;2277;51.626;7.516;2022-11-15T02:12:48;12.90;99.90
4530;DHT22;2277;51.626;7.516;2022-11-15T02:15:14;12.90;99.90
4530;DHT22;2277;51.626;7.516;2022-11-15T02:31:51;13.00;99.90
4530;DHT22;2277;51.626;7.516;2022-11-15T02:34:38;13.10;99.90
4530;DHT22;2277;51.626;7.516;2022-11-15T02:37:34;13.10;99.90
4530;DHT22;2277;51.626;7.516;2022-11-15T02:40:07;13.20;99.90
4530;DHT22;2277;51.626;7.516;2022-11-15T02:42:38;13.10;99.90
4530;DHT22;2277;51.626;7.516;2022-11-15T02:45:31;13.20;99.90
4530;DHT22;2277;51.626;7.516;2022-11-15T02:47:59;13.20;99.90
4530;DHT22;2277;51.626;7.516;2022-11-15T02:50:29;13.20;99.90
4530;DHT22;2277;51.626;7.516;2022-11-15T02:52:55;13.40;99.90
4530;DHT22;2277;51.626;7.516;2022-11-15T03:00:50;13.40;99.90
4530;DHT22;2277;51.626;7.516;2022-11-15T03:03:53;13.40;99.90
4530;DHT22;2277;51.626;7.516;2022-11-15T03:11:21;13.40;99.90
4530;DHT22;2277;51.626;7.516;2022-11-15T03:13:49;13.50;99.90
4530;DHT22;2277;51.626;7.516;2022-11-15T03:16:20;13.40;99.90
4530;DHT22;2277;51.626;7.516;2022-11-15T03:18:59;13.40;99.90
4530;DHT22;2277;51.626;7.516;2022-11-15T03:21:28;13.50;99.90
4530;DHT22;2277;51.626;7.516;2022-11-15T03:23:56;13.60;99.90
4530;DHT22;2277;51.626;7.516;2022-11-15T03:26:25;13.60;99.90
4530;DHT22;2277;51.626;7.516;2022-11-15T03:29:12;13.60;99.90
4530;DHT22;2277;51.626;7.516;2022-11-15T03:31:47;13.40;99.90
4530;DHT22;2277;51.626;7.516;2022-11-15T03:34:38;13.40;99.90
4530;DHT22;2277;51.626;7.516;2022-11-15T03:37:05;13.40;99.90
4530;DHT22;2277;51.626;7.516;2022-11-15T03:39:32;13.30;99.90
4530;DHT22;2277;51.626;7.516;2022-11-15T03:47:13;13.30;99.90
4530;DHT22;2277;51.626;7.516;2022-11-15T03:49:45;13.20;99.90
4530;DHT22;2277;51.626;7.516;2022-11-15T03:52:12;13.30;99.90
4530;DHT22;2277;51.626;7.516;2022-11-15T03:54:48;13.30;99.90
4530;DHT22;2277;51.626;7.516;2022-11-15T03:57:14;13.30;99.90
4530;DHT22;2277;51.626;7.516;2022-11-15T03:59:39;13.40;99.90
4530;DHT22;2277;51.626;7.516;2022-11-15T04:02:05;13.40;99.90
4530;DHT22;2277;51.626;7.516;2022-11-15T04:04:31;13.30;99.90
4530;DHT22;2277;51.626;7.516;2022-11-15T04:06:56;13.30;99.90
4530;DHT22;2277;51.626;7.516;2022-11-15T04:09:22;13.30;99.90
4530;DHT22;2277;51.626;7.516;2022-11-15T04:11:47;13.20;99.90
4530;DHT22;2277;51.626;7.516;2022-11-15T04:14:13;13.20;99.90
4530;DHT22;2277;51.626;7.516;2022-11-15T04:16:38;13.20;99.90
4530;DHT22;2277;51.626;7.516;2022-11-15T04:19:04;13.20;99.90
4530;DHT22;2277;51.626;7.516;2022-11-15T04:21:48;13.20;99.90
4530;DHT22;2277;51.626;7.516;2022-11-15T04:24:32;13.30;99.90
4530;DHT22;2277;51.626;7.516;2022-11-15T04:26:58;13.30;99.90
4530;DHT22;2277;51.626;7.516;2022-11-15T04:29:23;13.40;99.90
4530;DHT22;2277;51.626;7.516;2022-11-15T04:32:05;13.50;99.90
4530;DHT22;2277;51.626;7.516;2022-11-15T04:34:31;13.50;99.90
4530;DHT22;2277;51.626;7.516;2022-11-15T04:36:58;13.50;99.90
4530;DHT22;2277;51.626;7.516;2022-11-15T04:39:40;13.50;99.90
4530;DHT22;2277;51.626;7.516;2022-11-15T04:42:05;13.50;99.90
4530;DHT22;2277;51.626;7.516;2022-11-15T04:44:31;13.40;99.90
4530;DHT22;2277;51.626;7.516;2022-11-15T04:46:57;13.30;99.90
4530;DHT22;2277;51.626;7.516;2022-11-15T04:49:22;13.40;99.90
4530;DHT22;2277;51.626;7.516;2022-11-15T04:51:48;13.50;99.90
4530;DHT22;2277;51.626;7.516;2022-11-15T04:54:14;13.40;99.90
4530;DHT22;2277;51.626;7.516;2022-11-15T04:56:39;13.50;99.90
4530;DHT22;2277;51.626;7.516;2022-11-15T04:59:05;13.50;99.90
4530;DHT22;2277;51.626;7.516;2022-11-15T05:01:30;13.50;99.90
4530;DHT22;2277;51.626;7.516;2022-11-15T05:03:56;13.40;99.90
4530;DHT22;2277;51.626;7.516;2022-11-15T05:06:40;13.50;99.90
4530;DHT22;2277;51.626;7.516;2022-11-15T05:09:06;13.60;99.90
4530;DHT22;2277;51.626;7.516;2022-11-15T05:11:31;13.60;99.90
4530;DHT22;2277;51.626;7.516;2022-11-15T05:13:57;13.60;99.90
4530;DHT22;2277;51.626;7.516;2022-11-15T05:16:23;13.70;99.90
4530;DHT22;2277;51.626;7.516;2022-11-15T05:18:52;13.60;99.90
4530;DHT22;2277;51.626;7.516;2022-11-15T05:21:18;13.60;99.90
4530;DHT22;2277;51.626;7.516;2022-11-15T05:23:44;13.60;99.90
4530;DHT22;2277;51.626;7.516;2022-11-15T05:26:10;13.50;99.90
4530;DHT22;2277;51.626;7.516;2022-11-15T05:28:36;13.50;99.90
4530;DHT22;2277;51.626;7.516;2022-11-15T05:31:11;13.50;99.90
4530;DHT22;2277;51.626;7.516;2022-11-15T05:33:39;13.70;99.90
4530;DHT22;2277;51.626;7.516;2022-11-15T05:38:37;13.60;99.90
4530;DHT22;2277;51.626;7.516;2022-11-15T05:41:03;13.60;99.90
4530;DHT22;2277;51.626;7.516;2022-11-15T05:43:30;13.60;99.90
4530;DHT22;2277;51.626;7.516;2022-11-15T05:45:59;13.60;99.90
4530;DHT22;2277;51.626;7.516;2022-11-15T05:48:25;13.60;99.90
4530;DHT22;2277;51.626;7.516;2022-11-15T05:50:51;13.60;99.90
4530;DHT22;2277;51.626;7.516;2022-11-15T05:53:19;13.60;99.90
4530;DHT22;2277;51.626;7.516;2022-11-15T05:55:46;13.60;99.90
4530;DHT22;2277;51.626;7.516;2022-11-15T05:58:12;13.60;99.90
4530;DHT22;2277;51.626;7.516;2022-11-15T06:00:38;13.60;99.90
4530;DHT22;2277;51.626;7.516;2022-11-15T06:03:04;13.60;99.90
4530;DHT22;2277;51.626;7.516;2022-11-15T06:05:29;13.50;99.90
4530;DHT22;2277;51.626;7.516;2022-11-15T06:07:58;13.50;99.90
4530;DHT22;2277;51.626;7.516;2022-11-15T06:10:24;13.50;99.90
4530;DHT22;2277;51.626;7.516;2022-11-15T06:12:59;13.60;99.90
4530;DHT22;2277;51.626;7.516;2022-11-15T06:15:25;13.50;99.90
4530;DHT22;2277;51.626;7.516;2022-11-15T06:17:51;13.50;99.90
4530;DHT22;2277;51.626;7.516;2022-11-15T06:20:17;13.60;99.90
4530;DHT22;2277;51.626;7.516;2022-11-15T06:22:43;13.50;99.90
4530;DHT22;2277;51.626;7.516;2022-11-15T06:25:09;13.40;99.90
4530;DHT22;2277;51.626;7.516;2022-11-15T06:27:34;13.40;99.90
4530;DHT22;2277;51.626;7.516;2022-11-15T06:30:00;13.50;99.90
4530;DHT22;2277;51.626;7.516;2022-11-15T06:32:26;13.60;99.90
4530;DHT22;2277;51.626;7.516;2022-11-15T06:34:51;13.60;99.90
4530;DHT22;2277;51.626;7.516;2022-11-15T06:37:17;13.50;99.90
4530;DHT22;2277;51.626;7.516;2022-11-15T06:39:42;13.50;99.90
4530;DHT22;2277;51.626;7.516;2022-11-15T06:42:08;13.50;99.90
4530;DHT22;2277;51.626;7.516;2022-11-15T06:44:34;13.70;99.90
4530;DHT22;2277;51.626;7.516;2022-11-15T06:47:00;13.70;99.90
4530;DHT22;2277;51.626;7.516;2022-11-15T06:49:25;13.70;99.90
4530;DHT22;2277;51.626;7.516;2022-11-15T06:51:51;13.70;99.90
4530;DHT22;2277;51.626;7.516;2022-11-15T06:54:16;13.80;99.90
4530;DHT22;2277;51.626;7.516;2022-11-15T06:56:42;13.70;99.90
4530;DHT22;2277;51.626;7.516;2022-11-15T06:59:08;13.70;99.90
4530;DHT22;2277;51.626;7.516;2022-11-15T07:01:34;13.80;99.90
4530;DHT22;2277;51.626;7.516;2022-11-15T07:04:00;13.90;99.90
4530;DHT22;2277;51.626;7.516;2022-11-15T07:06:25;13.80;99.90
4530;DHT22;2277;51.626;7.516;2022-11-15T07:08:51;13.70;99.90
4530;DHT22;2277;51.626;7.516;2022-11-15T07:11:17;13.70;99.90
4530;DHT22;2277;51.626;7.516;2022-11-15T07:13:42;13.80;99.90
4530;DHT22;2277;51.626;7.516;2022-11-15T07:16:09;13.80;99.90
4530;DHT22;2277;51.626;7.516;2022-11-15T07:18:39;13.90;99.90
4530;DHT22;2277;51.626;7.516;2022-11-15T07:21:07;14.00;99.90
4530;DHT22;2277;51.626;7.516;2022-11-15T07:23:35;14.10;99.90
4530;DHT22;2277;51.626;7.516;2022-11-15T07:26:01;14.00;99.90
4530;DHT22;2277;51.626;7.516;2022-11-15T07:28:27;13.90;99.90
4530;DHT22;2277;51.626;7.516;2022-11-15T07:30:53;13.90;99.90
4530;DHT22;2277;51.626;7.516;2022-11-15T07:33:19;13.80;99.90
4530;DHT22;2277;51.626;7.516;2022-11-15T07:35:44;13.80;99.90
4530;DHT22;2277;51.626;7.516;2022-11-15T07:38:13;13.80;99.90
4530;DHT22;2277;51.626;7.516;2022-11-15T07:40:40;13.90;99.90
4530;DHT22;2277;51.626;7.516;2022-11-15T07:43:07;13.90;99.90
4530;DHT22;2277;51.626;7.516;2022-11-15T07:45:33;13.90;99.90
4530;DHT22;2277;51.626;7.516;2022-11-15T07:48:00;13.90;99.90
4530;DHT22;2277;51.626;7.516;2022-11-15T07:50:26;14.00;99.90
4530;DHT22;2277;51.626;7.516;2022-11-15T07:52:57;13.90;99.90
4530;DHT22;2277;51.626;7.516;2022-11-15T07:55:24;14.00;99.90
4530;DHT22;2277;51.626;7.516;2022-11-15T07:57:50;14.00;99.90
4530;DHT22;2277;51.626;7.516;2022-11-15T08:00:16;14.00;99.90
4530;DHT22;2277;51.626;7.516;2022-11-15T08:02:42;14.20;99.90
4530;DHT22;2277;51.626;7.516;2022-11-15T08:05:08;14.30;99.90
4530;DHT22;2277;51.626;7.516;2022-11-15T08:07:34;14.10;99.90
4530;DHT22;2277;51.626;7.516;2022-11-15T08:10:00;14.00;99.90
4530;DHT22;2277;51.626;7.516;2022-11-15T08:12:29;13.90;99.90
4530;DHT22;2277;51.626;7.516;2022-11-15T08:14:55;14.10;99.90
4530;DHT22;2277;51.626;7.516;2022-11-15T08:17:22;14.20;99.90
4530;DHT22;2277;51.626;7.516;2022-11-15T08:19:48;14.10;99.90
4530;DHT22;2277;51.626;7.516;2022-11-15T08:22:13;14.10;99.90
4530;DHT22;2277;51.626;7.516;2022-11-15T08:24:39;14.30;99.90
4530;DHT22;2277;51.626;7.516;2022-11-15T08:27:05;14.50;99.90
4530;DHT22;2277;51.626;7.516;2022-11-15T08:29:43;14.40;99.90
4530;DHT22;2277;51.626;7.516;2022-11-15T08:32:09;14.30;99.90
4530;DHT22;2277;51.626;7.516;2022-11-15T08:34:37;14.50;99.90
4530;DHT22;2277;51.626;7.516;2022-11-15T08:37:02;14.60;99.90
4530;DHT22;2277;51.626;7.516;2022-11-15T08:39:28;14.60;99.90
4530;DHT22;2277;51.626;7.516;2022-11-15T08:41:54;14.50;99.90
4530;DHT22;2277;51.626;7.516;2022-11-15T08:44:19;14.60;99.90
4530;DHT22;2277;51.626;7.516;2022-11-15T08:46:48;14.70;99.90
4530;DHT22;2277;51.626;7.516;2022-11-15T08:49:13;14.80;99.90
4530;DHT22;2277;51.626;7.516;2022-11-15T08:51:39;14.80;99.90
4530;DHT22;2277;51.626;7.516;2022-11-15T08:54:05;14.80;99.90
4530;DHT22;2277;51.626;7.516;2022-11-15T08:56:30;14.90;99.90
4530;DHT22;2277;51.626;7.516;2022-11-15T08:58:56;15.00;99.90
4530;DHT22;2277;51.626;7.516;2022-11-15T09:01:22;15.10;99.90
4530;DHT22;2277;51.626;7.516;2022-11-15T09:03:48;15.10;99.90
4530;DHT22;2277;51.626;7.516;2022-11-15T09:06:13;14.90;99.90
4530;DHT22;2277;51.626;7.516;2022-11-15T09:08:40;15.20;99.90
4530;DHT22;2277;51.626;7.516;2022-11-15T09:11:07;15.20;99.90
4530;DHT22;2277;51.626;7.516;2022-11-15T09:13:34;15.20;99.90
4530;DHT22;2277;51.626;7.516;2022-11-15T09:16:01;15.20;99.90
4530;DHT22;2277;51.626;7.516;2022-11-15T09:18:27;15.40;99.90
4530;DHT22;2277;51.626;7.516;2022-11-15T09:20:58;15.30;99.90
4530;DHT22;2277;51.626;7.516;2022-11-15T09:23:25;15.50;99.90
4530;DHT22;2277;51.626;7.516;2022-11-15T09:25:51;15.50;99.90
4530;DHT22;2277;51.626;7.516;2022-11-15T09:28:17;15.50;99.90
4530;DHT22;2277;51.626;7.516;2022-11-15T09:30:42;15.50;99.90
4530;DHT22;2277;51.626;7.516;2022-11-15T09:33:09;15.50;99.90
4530;DHT22;2277;51.626;7.516;2022-11-15T09:35:35;15.40;99.90
4530;DHT22;2277;51.626;7.516;2022-11-15T09:38:01;15.40;99.90
4530;DHT22;2277;51.626;7.516;2022-11-15T09:40:27;15.30;99.90
4530;DHT22;2277;51.626;7.516;2022-11-15T09:42:57;15.40;99.90
4530;DHT22;2277;51.626;7.516;2022-11-15T09:48:47;15.60;99.90
4530;DHT22;2277;51.626;7.516;2022-11-15T09:51:22;15.70;99.90
4530;DHT22;2277;51.626;7.516;2022-11-15T09:54:03;15.70;99.90
4530;DHT22;2277;51.626;7.516;2022-11-15T09:56:31;15.50;99.90
4530;DHT22;2277;51.626;7.516;2022-11-15T10:01:50;15.80;99.90
4530;DHT22;2277;51.626;7.516;2022-11-15T10:04:20;15.80;99.90
4530;DHT22;2277;51.626;7.516;2022-11-15T10:07:01;16.00;99.90
4530;DHT22;2277;51.626;7.516;2022-11-15T10:12:18;15.90;99.90
4530;DHT22;2277;51.626;7.516;2022-11-15T10:14:45;15.90;99.90
4530;DHT22;2277;51.626;7.516;2022-11-15T10:22:40;16.40;99.90
4530;DHT22;2277;51.626;7.516;2022-11-15T10:25:17;16.50;99.90
4530;DHT22;2277;51.626;7.516;2022-11-15T10:27:44;16.60;99.90
4530;DHT22;2277;51.626;7.516;2022-11-15T10:30:14;16.60;99.90
4530;DHT22;2277;51.626;7.516;2022-11-15T10:32:42;16.70;99.90
4530;DHT22;2277;51.626;7.516;2022-11-15T10:35:21;16.80;99.90
4530;DHT22;2277;51.626;7.516;2022-11-15T10:37:48;17.00;99.90
4530;DHT22;2277;51.626;7.516;2022-11-15T10:42:44;17.30;99.90
4530;DHT22;2277;51.626;7.516;2022-11-15T10:45:37;17.40;99.90
4530;DHT22;2277;51.626;7.516;2022-11-15T10:50:39;17.50;99.90
4530;DHT22;2277;51.626;7.516;2022-11-15T10:55:47;17.40;99.90
4530;DHT22;2277;51.626;7.516;2022-11-15T10:58:38;17.70;99.90
4530;DHT22;2277;51.626;7.516;2022-11-15T11:01:28;17.50;99.90
4530;DHT22;2277;51.626;7.516;2022-11-15T11:04:09;17.80;99.90
4530;DHT22;2277;51.626;7.516;2022-11-15T11:06:48;17.80;99.90
4530;DHT22;2277;51.626;7.516;2022-11-15T11:09:36;18.00;99.90
4530;DHT22;2277;51.626;7.516;2022-11-15T11:12:04;17.90;99.90
4530;DHT22;2277;51.626;7.516;2022-11-15T11:14:33;17.90;99.90
4530;DHT22;2277;51.626;7.516;2022-11-15T11:23:12;17.90;99.90
4530;DHT22;2277;51.626;7.516;2022-11-15T11:41:50;18.60;99.90
4530;DHT22;2277;51.626;7.516;2022-11-15T11:44:36;18.80;99.90
4530;DHT22;2277;51.626;7.516;2022-11-15T11:47:07;18.90;99.90
4530;DHT22;2277;51.626;7.516;2022-11-15T11:49:59;19.10;99.90
4530;DHT22;2277;51.626;7.516;2022-11-15T11:52:36;19.20;99.90
4530;DHT22;2277;51.626;7.516;2022-11-15T11:55:16;19.20;99.90
4530;DHT22;2277;51.626;7.516;2022-11-15T12:00:40;19.10;99.90
4530;DHT22;2277;51.626;7.516;2022-11-15T12:03:27;19.40;99.90
4530;DHT22;2277;51.626;7.516;2022-11-15T12:05:54;19.30;99.90
4530;DHT22;2277;51.626;7.516;2022-11-15T12:08:58;19.30;99.90
4530;DHT22;2277;51.626;7.516;2022-11-15T12:11:51;19.40;99.90
4530;DHT22;2277;51.626;7.516;2022-11-15T12:14:38;19.20;99.20
4530;DHT22;2277;51.626;7.516;2022-11-15T12:17:09;19.20;99.30
4530;DHT22;2277;51.626;7.516;2022-11-15T12:19:36;19.40;99.20
4530;DHT22;2277;51.626;7.516;2022-11-15T12:22:17;19.60;97.60
4530;DHT22;2277;51.626;7.516;2022-11-15T12:25:01;19.70;97.10
4530;DHT22;2277;51.626;7.516;2022-11-15T12:27:32;19.90;95.60
4530;DHT22;2277;51.626;7.516;2022-11-15T12:33:01;20.00;94.60
4530;DHT22;2277;51.626;7.516;2022-11-15T12:37:56;19.30;92.00
4530;DHT22;2277;51.626;7.516;2022-11-15T12:40:30;19.40;92.20
4530;DHT22;2277;51.626;7.516;2022-11-15T12:45:33;19.60;90.80
4530;DHT22;2277;51.626;7.516;2022-11-15T12:51:00;19.90;87.70
4530;DHT22;2277;51.626;7.516;2022-11-15T12:53:28;19.90;88.80
4530;DHT22;2277;51.626;7.516;2022-11-15T13:01:09;19.90;88.70
4530;DHT22;2277;51.626;7.516;2022-11-15T13:03:34;20.00;88.40
4530;DHT22;2277;51.626;7.516;2022-11-15T13:06:03;19.90;88.30
4530;DHT22;2277;51.626;7.516;2022-11-15T13:08:56;20.00;88.10
4530;DHT22;2277;51.626;7.516;2022-11-15T13:11:48;19.90;87.10
4530;DHT22;2277;51.626;7.516;2022-11-15T13:14:47;19.90;87.50
4530;DHT22;2277;51.626;7.516;2022-11-15T13:22:24;19.10;90.50
4530;DHT22;2277;51.626;7.516;2022-11-15T13:28:01;19.20;91.50
4530;DHT22;2277;51.626;7.516;2022-11-15T13:30:30;19.20;91.70
4530;DHT22;2277;51.626;7.516;2022-11-15T13:33:00;19.20;92.20
4530;DHT22;2277;51.626;7.516;2022-11-15T13:35:28;19.40;92.20
4530;DHT22;2277;51.626;7.516;2022-11-15T13:37:56;19.40;92.30
4530;DHT22;2277;51.626;7.516;2022-11-15T13:40:28;19.40;92.50
4530;DHT22;2277;51.626;7.516;2022-11-15T13:42:57;19.50;92.80
4530;DHT22;2277;51.626;7.516;2022-11-15T13:45:23;19.60;92.90
4530;DHT22;2277;51.626;7.516;2022-11-15T13:47:55;19.50;92.40
4530;DHT22;2277;51.626;7.516;2022-11-15T13:50:26;19.40;92.80
4530;DHT22;2277;51.626;7.516;2022-11-15T13:52:53;19.50;93.00
4530;DHT22;2277;51.626;7.516;2022-11-15T13:55:23;19.50;92.70
4530;DHT22;2277;51.626;7.516;2022-11-15T13:57:56;19.30;93.00
4530;DHT22;2277;51.626;7.516;2022-11-15T14:03:25;19.30;93.50
4530;DHT22;2277;51.626;7.516;2022-11-15T14:06:12;18.90;93.90
4530;DHT22;2277;51.626;7.516;2022-11-15T14:09:03;18.70;94.80
4530;DHT22;2277;51.626;7.516;2022-11-15T14:11:26;18.50;94.50
4530;DHT22;2277;51.626;7.516;2022-11-15T14:19:03;18.10;96.50
4530;DHT22;2277;51.626;7.516;2022-11-15T14:21:29;17.80;97.20
4530;DHT22;2277;51.626;7.516;2022-11-15T14:24:14;17.90;97.60
4530;DHT22;2277;51.626;7.516;2022-11-15T14:26:40;17.90;97.80
4530;DHT22;2277;51.626;7.516;2022-11-15T14:29:23;17.50;98.50
4530;DHT22;2277;51.626;7.516;2022-11-15T14:31:49;17.40;99.50
4530;DHT22;2277;51.626;7.516;2022-11-15T14:34:14;17.40;99.90
4530;DHT22;2277;51.626;7.516;2022-11-15T14:36:40;17.30;99.90
4530;DHT22;2277;51.626;7.516;2022-11-15T14:39:06;17.40;99.90
4530;DHT22;2277;51.626;7.516;2022-11-15T14:41:35;17.40;99.90
4530;DHT22;2277;51.626;7.516;2022-11-15T14:44:04;17.30;99.90
4530;DHT22;2277;51.626;7.516;2022-11-15T14:46:30;17.30;99.90
4530;DHT22;2277;51.626;7.516;2022-11-15T14:48:56;17.20;99.90
4530;DHT22;2277;51.626;7.516;2022-11-15T14:51:21;17.20;99.90
4530;DHT22;2277;51.626;7.516;2022-11-15T14:53:47;17.00;99.90
4530;DHT22;2277;51.626;7.516;2022-11-15T14:56:13;17.00;99.90
4530;DHT22;2277;51.626;7.516;2022-11-15T14:58:40;17.00;99.90
4530;DHT22;2277;51.626;7.516;2022-11-15T15:01:21;17.00;99.90
4530;DHT22;2277;51.626;7.516;2022-11-15T15:03:48;17.00;99.90
4530;DHT22;2277;51.626;7.516;2022-11-15T15:06:14;16.80;99.90
4530;DHT22;2277;51.626;7.516;2022-11-15T15:08:40;16.80;99.90
4530;DHT22;2277;51.626;7.516;2022-11-15T15:11:20;16.70;99.90
4530;DHT22;2277;51.626;7.516;2022-11-15T15:13:46;16.80;99.90
4530;DHT22;2277;51.626;7.516;2022-11-15T15:16:12;16.90;99.90
4530;DHT22;2277;51.626;7.516;2022-11-15T15:18:38;16.80;99.90
4530;DHT22;2277;51.626;7.516;2022-11-15T15:23:41;16.50;99.90
4530;DHT22;2277;51.626;7.516;2022-11-15T15:26:07;16.50;99.90
4530;DHT22;2277;51.626;7.516;2022-11-15T15:28:32;16.50;99.90
4530;DHT22;2277;51.626;7.516;2022-11-15T15:30:58;16.50;99.90
4530;DHT22;2277;51.626;7.516;2022-11-15T15:33:24;16.50;99.90
4530;DHT22;2277;51.626;7.516;2022-11-15T15:35:49;16.50;99.90
4530;DHT22;2277;51.626;7.516;2022-11-15T15:38:15;16.50;99.90
4530;DHT22;2277;51.626;7.516;2022-11-15T15:40:41;16.50;99.90
4530;DHT22;2277;51.626;7.516;2022-11-15T15:43:06;16.40;99.90
4530;DHT22;2277;51.626;7.516;2022-11-15T15:45:36;16.50;99.90
4530;DHT22;2277;51.626;7.516;2022-11-15T15:48:02;16.50;99.90
4530;DHT22;2277;51.626;7.516;2022-11-15T15:50:31;16.50;99.90
4530;DHT22;2277;51.626;7.516;2022-11-15T15:52:58;16.60;99.90
4530;DHT22;2277;51.626;7.516;2022-11-15T15:55:25;16.50;99.90
4530;DHT22;2277;51.626;7.516;2022-11-15T15:57:51;16.50;99.90
4530;DHT22;2277;51.626;7.516;2022-11-15T16:00:18;16.50;99.90
4530;DHT22;2277;51.626;7.516;2022-11-15T16:02:44;16.50;99.90
4530;DHT22;2277;51.626;7.516;2022-11-15T16:05:10;16.50;99.90
4530;DHT22;2277;51.626;7.516;2022-11-15T16:07:36;16.50;99.90
4530;DHT22;2277;51.626;7.516;2022-11-15T16:12:45;16.50;99.90
4530;DHT22;2277;51.626;7.516;2022-11-15T16:15:11;16.40;99.90
4530;DHT22;2277;51.626;7.516;2022-11-15T16:17:46;16.40;99.90
4530;DHT22;2277;51.626;7.516;2022-11-15T16:20:39;16.30;99.90
4530;DHT22;2277;51.626;7.516;2022-11-15T16:23:07;16.10;99.90
4530;DHT22;2277;51.626;7.516;2022-11-15T16:25:40;16.10;99.90
4530;DHT22;2277;51.626;7.516;2022-11-15T16:28:24;16.10;99.90
4530;DHT22;2277;51.626;7.516;2022-11-15T16:31:09;16.20;99.90
4530;DHT22;2277;51.626;7.516;2022-11-15T16:33:35;16.20;99.90
4530;DHT22;2277;51.626;7.516;2022-11-15T16:36:02;16.30;99.90
4530;DHT22;2277;51.626;7.516;2022-11-15T16:38:28;16.40;99.90
4530;DHT22;2277;51.626;7.516;2022-11-15T16:40:54;16.40;99.90
4530;DHT22;2277;51.626;7.516;2022-11-15T16:43:19;16.40;99.90
4530;DHT22;2277;51.626;7.516;2022-11-15T16:45:45;16.30;99.90
4530;DHT22;2277;51.626;7.516;2022-11-15T16:50:46;16.10;99.90
4530;DHT22;2277;51.626;7.516;2022-11-15T16:53:11;16.00;99.90
4530;DHT22;2277;51.626;7.516;2022-11-15T16:55:37;16.10;99.90
4530;DHT22;2277;51.626;7.516;2022-11-15T16:58:03;16.10;99.90
4530;DHT22;2277;51.626;7.516;2022-11-15T17:00:28;16.10;99.90
4530;DHT22;2277;51.626;7.516;2022-11-15T17:02:54;16.10;99.90
4530;DHT22;2277;51.626;7.516;2022-11-15T17:05:23;16.10;99.90
4530;DHT22;2277;51.626;7.516;2022-11-15T17:07:51;16.10;99.90
4530;DHT22;2277;51.626;7.516;2022-11-15T17:10:22;16.20;99.90
4530;DHT22;2277;51.626;7.516;2022-11-15T17:12:49;16.20;99.90
4530;DHT22;2277;51.626;7.516;2022-11-15T17:15:16;16.10;99.90
4530;DHT22;2277;51.626;7.516;2022-11-15T17:17:42;16.10;99.90
4530;DHT22;2277;51.626;7.516;2022-11-15T17:20:13;16.10;99.90
4530;DHT22;2277;51.626;7.516;2022-11-15T17:22:39;16.10;99.90
4530;DHT22;2277;51.626;7.516;2022-11-15T17:25:05;16.00;99.90
4530;DHT22;2277;51.626;7.516;2022-11-15T17:27:31;15.90;99.90
4530;DHT22;2277;51.626;7.516;2022-11-15T17:29:57;15.80;99.90
4530;DHT22;2277;51.626;7.516;2022-11-15T17:32:22;15.70;99.90
4530;DHT22;2277;51.626;7.516;2022-11-15T17:34:48;15.60;99.90
4530;DHT22;2277;51.626;7.516;2022-11-15T17:37:14;15.70;99.90
4530;DHT22;2277;51.626;7.516;2022-11-15T17:39:39;15.60;99.90
4530;DHT22;2277;51.626;7.516;2022-11-15T17:42:05;15.60;99.90
4530;DHT22;2277;51.626;7.516;2022-11-15T17:44:31;15.50;99.90
4530;DHT22;2277;51.626;7.516;2022-11-15T17:46:56;15.40;99.90
4530;DHT22;2277;51.626;7.516;2022-11-15T17:49:22;15.30;99.90
4530;DHT22;2277;51.626;7.516;2022-11-15T17:51:48;15.30;99.90
4530;DHT22;2277;51.626;7.516;2022-11-15T17:54:13;15.30;99.90
4530;DHT22;2277;51.626;7.516;2022-11-15T17:56:40;15.20;99.90
4530;DHT22;2277;51.626;7.516;2022-11-15T17:59:06;15.30;99.90
4530;DHT22;2277;51.626;7.516;2022-11-15T18:01:34;15.30;99.90
4530;DHT22;2277;51.626;7.516;2022-11-15T18:04:01;15.40;99.90
4530;DHT22;2277;51.626;7.516;2022-11-15T18:06:30;15.50;99.90
4530;DHT22;2277;51.626;7.516;2022-11-15T18:08:57;15.60;99.90
4530;DHT22;2277;51.626;7.516;2022-11-15T18:11:34;15.60;99.90
4530;DHT22;2277;51.626;7.516;2022-11-15T18:14:02;15.50;99.90